Time;durP1;ratioP1;P1;durP2;ratioP2;P2;SDS_P1;SDS_P2;PMS_P1;PMS_P2;Temp;Humidity;BMP_temperature;BMP_pressure;BME280_temperature;BME280_humidity;BME280_pressure;Samples;Min_cycle;Max_cycle;Signal;HPM_P1;HPM_P2
2022/06/12 00:00:41;;;;;;;7.40;6.80;;;18.30;99.90;;;;;;6161406;23;20460;-80
2022/06/12 00:03:11;;;;;;;8.30;7.60;;;18.30;99.90;;;;;;6161872;23;20483;-80
2022/06/12 00:05:42;;;;;;;8.87;7.53;;;18.30;99.90;;;;;;6132192;23;20470;-79
2022/06/12 00:08:10;;;;;;;7.70;7.00;;;18.30;99.90;;;;;;6144699;23;20444;-80
2022/06/12 00:10:40;;;;;;;8.17;7.57;;;18.30;99.90;;;;;;6151651;23;20471;-81
2022/06/12 00:13:10;;;;;;;8.70;7.97;;;18.20;99.90;;;;;;6147500;23;21240;-80
2022/06/12 00:15:38;;;;;;;8.80;7.90;;;18.30;99.90;;;;;;6146341;23;20444;-81
2022/06/12 00:18:05;;;;;;;8.27;7.53;;;18.30;99.90;;;;;;6149010;23;20494;-80
2022/06/12 00:20:33;;;;;;;8.30;7.60;;;18.30;99.90;;;;;;6143978;23;20479;-80
2022/06/12 00:23:00;;;;;;;9.27;8.10;;;18.20;99.90;;;;;;6149634;23;20515;-80
2022/06/12 00:25:31;;;;;;;8.43;7.63;;;18.20;99.90;;;;;;6154611;23;20859;-80
2022/06/12 00:28:03;;;;;;;8.63;7.83;;;18.20;99.90;;;;;;6160659;23;20448;-80
2022/06/12 00:30:36;;;;;;;8.73;6.63;;;18.10;99.90;;;;;;6157250;23;20467;-80
2022/06/12 00:33:03;;;;;;;8.40;7.60;;;18.10;99.90;;;;;;6156342;23;20445;-81
2022/06/12 00:35:33;;;;;;;7.83;7.23;;;18.00;99.90;;;;;;6159460;23;21038;-81
2022/06/12 00:38:02;;;;;;;7.53;6.83;;;18.10;99.90;;;;;;6161782;23;20468;-81
2022/06/12 00:40:29;;;;;;;7.57;6.83;;;18.00;99.90;;;;;;6159952;23;20456;-80
2022/06/12 00:42:59;;;;;;;7.00;6.40;;;18.00;99.90;;;;;;6156900;23;20783;-81
2022/06/12 00:45:43;;;;;;;7.63;6.13;;;18.00;99.90;;;;;;6152879;23;21511;-80
2022/06/12 00:48:17;;;;;;;7.97;7.17;;;17.90;99.90;;;;;;6158743;23;20443;-81
2022/06/12 00:50:50;;;;;;;8.20;7.40;;;17.90;99.90;;;;;;6158404;23;20437;-81
2022/06/12 00:53:22;;;;;;;7.70;7.20;;;17.90;99.90;;;;;;6157681;23;20440;-80
2022/06/12 00:55:57;;;;;;;7.57;6.77;;;17.90;99.90;;;;;;6153096;23;20987;-80
2022/06/12 00:58:29;;;;;;;8.23;7.43;;;17.90;99.90;;;;;;6166073;23;20969;-81
2022/06/12 01:00:57;;;;;;;8.70;8.00;;;17.80;99.90;;;;;;6154547;23;21040;-80
2022/06/12 01:03:25;;;;;;;7.10;6.60;;;17.80;99.90;;;;;;6161164;23;20443;-80
2022/06/12 01:08:39;;;;;;;8.00;7.40;;;17.70;99.90;;;;;;6155491;23;21058;-81
2022/06/12 01:11:15;;;;;;;7.57;6.93;;;17.70;99.90;;;;;;6162869;23;20952;-80
2022/06/12 01:13:46;;;;;;;7.80;7.30;;;17.60;99.90;;;;;;6152510;23;20447;-80
2022/06/12 01:16:19;;;;;;;8.27;7.60;;;17.60;99.90;;;;;;6160174;23;20445;-80
2022/06/12 01:18:50;;;;;;;8.40;7.60;;;17.60;99.90;;;;;;6158709;23;20526;-80
2022/06/12 01:21:51;;;;;;;7.57;6.97;;;17.60;99.90;;;;;;6150662;23;20468;-80
2022/06/12 01:24:47;;;;;;;7.90;7.17;;;17.60;99.90;;;;;;6144308;23;20445;-80
2022/06/12 01:27:36;;;;;;;8.00;7.40;;;17.60;99.90;;;;;;6147331;23;20952;-80
2022/06/12 01:30:14;;;;;;;8.00;7.30;;;17.50;99.90;;;;;;6148344;23;20468;-80
2022/06/12 01:32:49;;;;;;;7.63;7.03;;;17.50;99.90;;;;;;6148208;23;20444;-80
2022/06/12 01:35:27;;;;;;;8.07;7.27;;;17.50;99.90;;;;;;6146951;23;20436;-81
2022/06/12 01:38:01;;;;;;;7.93;7.20;;;17.40;99.90;;;;;;6146976;23;20501;-80
2022/06/12 01:40:35;;;;;;;7.80;7.00;;;17.40;99.90;;;;;;6147404;23;21127;-80
2022/06/12 01:43:11;;;;;;;7.80;7.03;;;17.40;99.90;;;;;;6149242;23;20924;-81
2022/06/12 01:45:45;;;;;;;7.97;7.27;;;17.40;99.90;;;;;;6144304;23;20436;-80
2022/06/12 01:48:25;;;;;;;8.33;7.73;;;17.40;99.90;;;;;;6147649;23;20459;-81
2022/06/12 01:51:01;;;;;;;9.00;8.20;;;17.30;99.90;;;;;;6147847;23;20529;-81
2022/06/12 01:53:37;;;;;;;8.30;7.60;;;17.30;99.90;;;;;;6147129;23;20517;-81
2022/06/12 01:56:15;;;;;;;8.73;8.03;;;17.30;99.90;;;;;;6148173;23;20903;-80
2022/06/12 01:58:51;;;;;;;9.40;8.70;;;17.20;99.90;;;;;;6128670;23;20483;-80
2022/06/12 02:01:27;;;;;;;8.77;8.07;;;17.20;99.90;;;;;;6148653;23;20440;-81
2022/06/12 02:03:59;;;;;;;8.47;7.67;;;17.20;99.90;;;;;;6144592;23;20458;-80
2022/06/12 02:06:34;;;;;;;8.37;7.70;;;17.20;99.90;;;;;;6159607;23;20954;-80
2022/06/12 02:09:07;;;;;;;9.80;9.00;;;17.10;99.90;;;;;;6149359;23;20464;-80
2022/06/12 02:14:29;;;;;;;9.40;8.70;;;17.10;99.90;;;;;;6146399;23;20444;-80
2022/06/12 02:17:01;;;;;;;9.03;8.23;;;17.10;99.90;;;;;;6139089;23;20955;-81
2022/06/12 02:19:34;;;;;;;9.50;8.70;;;17.00;99.90;;;;;;6145695;23;20461;-81
2022/06/12 02:22:06;;;;;;;9.93;9.13;;;16.90;99.90;;;;;;6147578;23;20448;-81
2022/06/12 02:24:40;;;;;;;9.30;8.60;;;16.90;99.90;;;;;;6145571;23;21216;-80
2022/06/12 02:27:11;;;;;;;9.20;8.40;;;16.80;99.90;;;;;;6150168;23;20476;-81
2022/06/12 02:29:42;;;;;;;8.50;7.90;;;16.80;99.90;;;;;;6139552;23;21072;-80
2022/06/12 02:32:15;;;;;;;8.93;8.10;;;16.80;99.90;;;;;;6147689;23;20512;-81
2022/06/12 02:34:49;;;;;;;8.70;8.00;;;16.80;99.90;;;;;;6145116;23;20567;-81
2022/06/12 02:37:20;;;;;;;9.17;8.47;;;16.80;99.90;;;;;;6146480;23;20439;-81
2022/06/12 02:39:52;;;;;;;9.37;8.60;;;16.80;99.90;;;;;;6148194;23;20465;-81
2022/06/12 02:42:26;;;;;;;9.10;8.40;;;16.80;99.90;;;;;;6150107;23;20441;-81
2022/06/12 02:44:57;;;;;;;9.40;8.70;;;16.80;99.90;;;;;;6148470;23;20439;-80
2022/06/12 02:47:29;;;;;;;9.47;8.67;;;16.80;99.90;;;;;;6148358;23;20453;-80
2022/06/12 02:49:58;;;;;;;9.23;8.47;;;16.70;99.90;;;;;;6148944;23;20465;-80
2022/06/12 02:52:35;;;;;;;8.80;8.00;;;16.70;99.90;;;;;;6147835;23;20506;-81
2022/06/12 02:55:11;;;;;;;10.23;9.40;;;16.60;99.90;;;;;;6150534;23;20440;-80
2022/06/12 02:57:45;;;;;;;9.40;8.50;;;16.50;99.90;;;;;;6150054;23;20441;-80
2022/06/12 03:00:19;;;;;;;8.80;8.10;;;16.50;99.90;;;;;;6147649;23;20519;-81
2022/06/12 03:02:56;;;;;;;9.20;8.53;;;16.40;99.90;;;;;;6149442;23;20440;-82
2022/06/12 03:05:27;;;;;;;9.80;9.00;;;16.40;99.90;;;;;;6145115;23;20437;-80
2022/06/12 03:08:00;;;;;;;11.00;9.50;;;16.30;99.90;;;;;;6142491;23;20477;-80
2022/06/12 03:10:31;;;;;;;10.10;9.30;;;16.20;99.90;;;;;;6148348;23;20444;-80
2022/06/12 03:13:00;;;;;;;9.90;9.00;;;16.10;99.90;;;;;;6148168;23;20446;-80
2022/06/12 03:15:34;;;;;;;9.20;8.40;;;16.10;99.90;;;;;;6143192;23;20452;-80
2022/06/12 03:18:07;;;;;;;9.80;9.00;;;16.00;99.90;;;;;;6140014;23;20460;-80
2022/06/12 03:20:42;;;;;;;9.70;8.90;;;16.00;99.90;;;;;;6146138;23;20824;-80
2022/06/12 03:23:21;;;;;;;10.50;9.10;;;15.90;99.90;;;;;;6149300;23;20436;-80
2022/06/12 03:25:53;;;;;;;9.83;8.90;;;15.90;99.90;;;;;;6132814;23;20434;-80
2022/06/12 03:28:33;;;;;;;10.10;9.30;;;15.80;99.90;;;;;;6142840;23;20477;-80
2022/06/12 03:31:08;;;;;;;9.73;8.77;;;15.80;99.90;;;;;;6144973;23;20468;-80
2022/06/12 03:33:46;;;;;;;9.70;8.90;;;15.80;99.90;;;;;;6149062;23;20435;-80
2022/06/12 03:36:18;;;;;;;8.87;8.17;;;15.70;99.90;;;;;;6153399;23;20535;-80
2022/06/12 03:38:52;;;;;;;10.57;9.47;;;15.60;99.90;;;;;;6157470;23;20472;-80
2022/06/12 03:41:24;;;;;;;10.23;9.33;;;15.60;99.90;;;;;;6146703;23;20783;-79
2022/06/12 03:43:58;;;;;;;9.67;8.87;;;15.60;99.90;;;;;;6145106;23;20440;-80
2022/06/12 03:46:32;;;;;;;9.47;8.77;;;15.50;99.90;;;;;;6147088;23;20443;-80
2022/06/12 03:49:07;;;;;;;10.30;9.40;;;15.50;99.90;;;;;;6149309;23;20466;-80
2022/06/12 03:51:39;;;;;;;9.80;8.80;;;15.40;99.90;;;;;;6148074;23;20446;-80
2022/06/12 03:54:14;;;;;;;9.73;8.83;;;15.40;99.90;;;;;;6147967;23;20441;-80
2022/06/12 03:59:38;;;;;;;10.17;9.27;;;15.40;99.90;;;;;;6144233;23;20463;-80
2022/06/12 04:02:07;;;;;;;9.60;8.73;;;15.30;99.90;;;;;;6146987;23;20923;-80
2022/06/12 04:04:39;;;;;;;9.57;8.77;;;15.30;99.90;;;;;;6147543;23;20456;-79
2022/06/12 04:07:10;;;;;;;9.57;8.77;;;15.30;99.90;;;;;;6149518;23;20449;-81
2022/06/12 04:09:53;;;;;;;10.60;9.70;;;15.20;99.90;;;;;;6148713;23;20509;-80
2022/06/12 04:12:25;;;;;;;9.50;8.70;;;15.20;99.90;;;;;;6139067;23;20490;-80
2022/06/12 04:14:57;;;;;;;10.07;9.20;;;15.20;99.90;;;;;;6161424;23;20799;-80
2022/06/12 04:17:24;;;;;;;9.00;8.30;;;15.20;99.90;;;;;;6153744;23;20432;-80
2022/06/12 04:20:04;;;;;;;9.67;8.97;;;15.20;99.90;;;;;;6153844;23;20437;-79
2022/06/12 04:22:47;;;;;;;11.00;10.03;;;15.20;99.90;;;;;;6148837;23;20459;-80
2022/06/12 04:25:33;;;;;;;9.67;8.87;;;15.20;99.90;;;;;;6149850;23;20448;-79
2022/06/12 04:28:01;;;;;;;11.30;10.30;;;15.20;99.90;;;;;;6153847;23;20476;-80
2022/06/12 04:30:31;;;;;;;10.40;9.50;;;15.20;99.90;;;;;;6146887;23;20868;-80
2022/06/12 04:33:21;;;;;;;10.10;9.20;;;15.30;99.90;;;;;;6158870;23;20508;-79
2022/06/12 04:35:54;;;;;;;11.17;10.17;;;15.40;99.90;;;;;;6151336;23;20433;-79
2022/06/12 04:38:22;;;;;;;10.90;9.90;;;15.50;99.90;;;;;;6138078;23;20495;-80
2022/06/12 04:40:49;;;;;;;10.20;9.40;;;15.60;99.90;;;;;;6154423;23;20427;-80
2022/06/12 04:43:17;;;;;;;10.00;9.17;;;15.70;99.90;;;;;;6151143;23;20535;-79
2022/06/12 04:45:45;;;;;;;8.43;7.83;;;15.80;99.90;;;;;;6159512;23;20432;-80
2022/06/12 04:48:16;;;;;;;9.90;9.10;;;15.90;99.90;;;;;;6160315;23;20471;-80
2022/06/12 04:50:43;;;;;;;10.13;9.20;;;16.00;99.90;;;;;;6158129;23;20441;-80
2022/06/12 04:53:11;;;;;;;10.43;8.60;;;16.10;99.90;;;;;;6162106;23;20456;-80
2022/06/12 04:55:40;;;;;;;9.33;8.43;;;16.10;99.90;;;;;;6162870;23;20442;-81
2022/06/12 04:58:07;;;;;;;8.70;8.10;;;16.20;99.90;;;;;;6160218;23;20579;-79
2022/06/12 05:00:35;;;;;;;9.13;8.23;;;16.30;99.90;;;;;;6159226;23;21047;-80
2022/06/12 05:03:04;;;;;;;9.03;8.33;;;16.30;99.90;;;;;;6163329;23;20499;-79
2022/06/12 05:05:32;;;;;;;8.93;8.33;;;16.40;99.90;;;;;;6162002;23;20511;-79
2022/06/12 05:07:59;;;;;;;9.30;8.60;;;16.50;99.90;;;;;;6165921;23;20482;-79
2022/06/12 05:10:27;;;;;;;8.73;8.03;;;16.60;99.90;;;;;;6160917;23;20429;-80
2022/06/12 05:12:55;;;;;;;8.90;8.27;;;16.80;99.90;;;;;;6160455;23;20438;-80
2022/06/12 05:15:22;;;;;;;9.23;8.63;;;16.90;99.90;;;;;;6164723;23;20799;-80
2022/06/12 05:17:50;;;;;;;8.57;7.77;;;17.00;99.90;;;;;;6164767;23;20965;-79
2022/06/12 05:20:20;;;;;;;9.00;8.20;;;17.10;99.90;;;;;;6163237;23;20443;-79
2022/06/12 05:22:48;;;;;;;7.93;7.33;;;17.20;99.90;;;;;;6160022;23;20443;-79
2022/06/12 05:25:17;;;;;;;7.90;7.20;;;17.30;99.90;;;;;;6156183;23;20464;-79
2022/06/12 05:27:46;;;;;;;8.70;8.03;;;17.40;99.90;;;;;;6161893;23;20460;-79
2022/06/12 05:30:15;;;;;;;8.47;7.83;;;17.50;99.90;;;;;;6163414;23;20452;-79
2022/06/12 05:32:46;;;;;;;8.53;7.70;;;17.50;99.90;;;;;;6163243;23;20456;-79
2022/06/12 05:35:14;;;;;;;8.20;7.60;;;17.60;99.90;;;;;;6164242;23;20572;-79
2022/06/12 05:37:41;;;;;;;9.20;8.30;;;17.60;99.90;;;;;;6156481;23;20461;-79
2022/06/12 05:40:14;;;;;;;8.43;7.63;;;17.60;99.90;;;;;;6164108;23;20433;-80
2022/06/12 05:42:42;;;;;;;8.53;7.87;;;17.70;99.90;;;;;;6165928;23;20997;-80
2022/06/12 05:45:13;;;;;;;8.07;7.40;;;17.70;99.90;;;;;;6164356;23;20439;-80
2022/06/12 05:47:49;;;;;;;8.90;8.10;;;17.80;99.90;;;;;;6166398;23;20542;-81
2022/06/12 05:50:18;;;;;;;8.83;8.13;;;17.80;99.90;;;;;;6166734;23;20446;-80
2022/06/12 05:52:46;;;;;;;8.70;7.90;;;17.90;99.90;;;;;;6189840;23;20421;-78
2022/06/12 05:55:13;;;;;;;8.43;7.60;;;18.00;99.90;;;;;;6184476;23;20440;-80
2022/06/12 05:57:40;;;;;;;9.03;8.23;;;18.10;99.90;;;;;;6179055;23;20452;-81
2022/06/12 06:00:15;;;;;;;8.00;7.40;;;18.10;99.90;;;;;;6173841;23;20474;-80
2022/06/12 06:02:43;;;;;;;9.23;8.53;;;18.20;99.90;;;;;;6178764;23;20491;-81
2022/06/12 06:05:10;;;;;;;8.67;7.97;;;18.30;99.90;;;;;;6183293;23;20428;-79
2022/06/12 06:07:38;;;;;;;8.77;7.97;;;18.50;99.90;;;;;;6188356;23;20441;-80
2022/06/12 06:10:12;;;;;;;7.37;6.77;;;18.50;99.90;;;;;;6183416;23;20436;-81
2022/06/12 06:12:39;;;;;;;8.37;7.67;;;18.70;99.90;;;;;;6194384;23;20444;-81
2022/06/12 06:15:07;;;;;;;8.40;7.60;;;18.70;99.90;;;;;;6139639;23;20436;-81
2022/06/12 06:17:37;;;;;;;8.20;7.60;;;18.80;99.90;;;;;;6163013;23;20463;-82
2022/06/12 06:20:05;;;;;;;8.37;7.60;;;18.90;99.90;;;;;;6157950;23;20790;-81
2022/06/12 06:22:33;;;;;;;8.20;7.43;;;18.90;99.90;;;;;;6158897;23;20440;-81
2022/06/12 06:25:00;;;;;;;8.07;7.40;;;19.00;99.90;;;;;;6157785;23;20442;-81
2022/06/12 06:27:27;;;;;;;7.67;7.03;;;19.10;99.90;;;;;;6162888;23;20492;-81
2022/06/12 06:29:54;;;;;;;7.90;7.20;;;19.20;99.90;;;;;;6158356;23;20440;-81
2022/06/12 06:32:21;;;;;;;7.17;6.53;;;19.30;99.90;;;;;;6164102;23;20597;-81
2022/06/12 06:34:50;;;;;;;7.33;6.80;;;19.50;99.90;;;;;;6161927;23;20435;-80
2022/06/12 06:37:17;;;;;;;7.73;7.00;;;19.70;99.90;;;;;;6163757;23;20464;-79
2022/06/12 06:39:44;;;;;;;7.93;7.40;;;19.90;99.90;;;;;;6161250;23;20474;-80
2022/06/12 06:42:11;;;;;;;7.87;7.27;;;20.00;99.90;;;;;;6162535;23;20447;-80
2022/06/12 06:47:23;;;;;;;7.60;7.00;;;20.30;99.90;;;;;;6161344;23;20524;-78
2022/06/12 06:49:52;;;;;;;7.97;7.37;;;20.40;99.90;;;;;;6159430;23;20762;-79
2022/06/12 06:52:19;;;;;;;7.50;6.93;;;20.50;99.90;;;;;;6160272;23;20440;-79
2022/06/12 06:54:46;;;;;;;7.13;6.53;;;20.70;99.90;;;;;;6156142;23;20522;-78
2022/06/12 06:57:14;;;;;;;7.20;6.60;;;20.70;99.90;;;;;;6162691;23;20510;-79
2022/06/12 06:59:42;;;;;;;7.03;6.43;;;20.90;99.90;;;;;;6165970;23;20445;-78
2022/06/12 07:02:11;;;;;;;6.90;6.43;;;21.10;99.90;;;;;;6160138;23;20802;-79
2022/06/12 07:04:39;;;;;;;6.70;6.20;;;21.30;99.90;;;;;;6155113;23;20525;-78
2022/06/12 07:07:09;;;;;;;7.20;6.50;;;21.60;99.90;;;;;;6157288;23;20609;-79
2022/06/12 07:09:36;;;;;;;6.87;6.27;;;21.70;99.90;;;;;;6161536;23;20537;-78
2022/06/12 07:12:05;;;;;;;6.37;5.87;;;21.90;99.90;;;;;;6152766;23;20449;-79
2022/06/12 07:14:32;;;;;;;6.20;5.60;;;22.20;99.90;;;;;;6147811;23;20524;-78
2022/06/12 07:16:59;;;;;;;5.60;5.10;;;22.40;99.90;;;;;;6152065;23;20463;-79
2022/06/12 07:19:27;;;;;;;5.83;5.37;;;22.70;99.90;;;;;;6157423;23;20779;-79
2022/06/12 07:21:55;;;;;;;6.10;5.70;;;23.00;99.90;;;;;;6153292;23;20450;-79
2022/06/12 07:24:23;;;;;;;5.83;5.43;;;23.20;99.90;;;;;;6149813;23;21005;-78
2022/06/12 07:26:51;;;;;;;5.47;5.07;;;23.30;99.90;;;;;;6155571;23;20472;-79
2022/06/12 07:29:21;;;;;;;5.83;5.20;;;23.50;99.90;;;;;;6149220;23;20479;-79
2022/06/12 07:31:49;;;;;;;5.50;5.00;;;23.80;99.90;;;;;;6161386;23;20439;-79
2022/06/12 07:34:17;;;;;;;6.10;5.63;;;24.00;99.90;;;;;;6147921;23;20440;-79
2022/06/12 07:36:47;;;;;;;6.20;5.60;;;24.30;99.90;;;;;;6151221;23;20470;-79
2022/06/12 07:39:19;;;;;;;5.80;5.30;;;24.50;99.90;;;;;;6161583;23;20788;-79
2022/06/12 07:41:49;;;;;;;5.50;5.10;;;24.90;99.90;;;;;;6152954;23;20433;-80
2022/06/12 07:44:19;;;;;;;6.10;5.60;;;25.20;99.90;;;;;;6152398;23;20483;-81
2022/06/12 07:46:47;;;;;;;5.10;4.70;;;25.70;99.90;;;;;;6161120;23;20486;-81
2022/06/12 07:49:14;;;;;;;5.10;4.70;;;26.30;99.90;;;;;;6161281;23;20528;-81
2022/06/12 07:51:41;;;;;;;4.60;4.20;;;27.00;99.90;;;;;;6166538;23;20448;-80
2022/06/12 07:54:09;;;;;;;6.60;4.50;;;27.80;99.90;;;;;;6159203;23;20447;-80
2022/06/12 07:56:36;;;;;;;5.07;3.97;;;28.40;99.90;;;;;;6159690;23;20467;-80
2022/06/12 07:59:06;;;;;;;4.30;3.97;;;29.10;99.40;;;;;;6161380;23;20436;-80
2022/06/12 08:01:33;;;;;;;4.17;3.83;;;29.80;97.50;;;;;;6159988;23;20440;-80
2022/06/12 08:04:01;;;;;;;4.87;4.50;;;30.40;96.30;;;;;;6156843;23;20997;-81
2022/06/12 08:06:29;;;;;;;4.63;4.33;;;30.70;94.20;;;;;;6161177;23;20461;-81
2022/06/12 08:08:57;;;;;;;4.63;4.23;;;31.10;92.80;;;;;;6167366;23;20456;-80
2022/06/12 08:11:26;;;;;;;4.30;4.00;;;31.40;92.60;;;;;;6162751;23;20966;-81
2022/06/12 08:13:54;;;;;;;4.33;3.93;;;31.40;92.70;;;;;;6157972;23;20441;-80
2022/06/12 08:16:23;;;;;;;3.67;3.43;;;32.10;91.00;;;;;;6158688;23;20506;-80
2022/06/12 08:18:50;;;;;;;4.63;4.23;;;32.40;90.40;;;;;;6162194;23;21150;-81
2022/06/12 08:21:18;;;;;;;4.53;4.00;;;32.90;88.10;;;;;;6156907;23;20453;-80
2022/06/12 08:23:47;;;;;;;4.07;3.67;;;33.10;86.20;;;;;;6159855;23;20432;-80
2022/06/12 08:26:18;;;;;;;4.43;4.13;;;33.50;84.70;;;;;;6166069;23;20445;-80
2022/06/12 08:28:49;;;;;;;3.90;3.60;;;33.10;82.30;;;;;;6164848;23;20464;-80
2022/06/12 08:31:19;;;;;;;4.60;3.80;;;33.30;82.50;;;;;;6163930;23;20447;-80
2022/06/12 08:33:51;;;;;;;3.90;3.60;;;33.20;81.40;;;;;;6163872;23;20894;-80
2022/06/12 08:36:20;;;;;;;3.40;3.10;;;33.60;81.00;;;;;;6168713;23;20447;-80
2022/06/12 08:38:48;;;;;;;4.13;3.77;;;33.40;76.60;;;;;;6161801;23;21394;-81
2022/06/12 08:41:21;;;;;;;3.63;3.33;;;33.30;78.50;;;;;;6161915;23;20915;-80
2022/06/12 08:43:54;;;;;;;3.60;3.30;;;33.30;76.90;;;;;;6161875;23;20459;-81
2022/06/12 08:46:31;;;;;;;3.63;3.33;;;33.40;74.90;;;;;;6160117;23;20518;-80
2022/06/12 08:49:07;;;;;;;3.53;3.03;;;33.80;74.60;;;;;;6168295;23;20468;-80
2022/06/12 08:51:39;;;;;;;3.33;3.03;;;34.40;72.20;;;;;;6162496;23;21005;-81
2022/06/12 08:54:13;;;;;;;3.13;2.90;;;34.90;69.10;;;;;;6156660;23;20451;-80
2022/06/12 08:56:47;;;;;;;3.07;2.80;;;35.30;69.30;;;;;;6151127;23;20513;-81
2022/06/12 08:59:20;;;;;;;3.10;2.90;;;35.70;67.30;;;;;;6156415;23;20882;-81
2022/06/12 09:01:47;;;;;;;2.90;2.70;;;35.10;65.10;;;;;;6146695;23;20523;-80
2022/06/12 09:04:19;;;;;;;3.47;3.17;;;34.70;66.30;;;;;;6162260;23;20456;-80
2022/06/12 09:06:51;;;;;;;3.13;2.83;;;34.60;64.30;;;;;;6152891;23;20456;-80
2022/06/12 09:09:24;;;;;;;2.83;2.63;;;34.30;64.60;;;;;;6149120;23;20474;-82
2022/06/12 09:11:56;;;;;;;3.77;3.07;;;34.50;66.00;;;;;;6161516;23;20519;-80
2022/06/12 09:14:35;;;;;;;4.17;3.13;;;34.60;64.40;;;;;;6155017;23;20538;-81
2022/06/12 09:17:11;;;;;;;3.90;3.00;;;34.70;65.50;;;;;;6161038;23;20459;-80
2022/06/12 09:19:47;;;;;;;3.67;3.00;;;34.50;65.60;;;;;;6155893;23;20440;-80
2022/06/12 09:22:21;;;;;;;2.90;2.70;;;34.70;65.20;;;;;;6157566;23;20434;-80
2022/06/12 09:24:56;;;;;;;3.23;2.93;;;35.30;61.80;;;;;;6156276;23;20439;-81
2022/06/12 14:02:42;;;;;;;3.00;2.30;;;48.00;38.70;;;;;;6128769;23;20917;-75
2022/06/12 14:05:20;;;;;;;2.80;2.60;;;46.80;40.30;;;;;;6126055;23;20207;-76
2022/06/12 14:07:50;;;;;;;2.33;2.13;;;47.10;38.90;;;;;;6108005;23;20483;-76
2022/06/12 14:10:23;;;;;;;2.40;2.20;;;48.20;38.20;;;;;;6100048;23;20434;-75
2022/06/12 14:12:50;;;;;;;2.23;2.13;;;49.40;37.70;;;;;;6098895;23;20438;-76
2022/06/12 14:15:34;;;;;;;1.80;1.70;;;50.30;36.20;;;;;;6104514;23;20544;-76
2022/06/12 14:18:05;;;;;;;2.67;2.40;;;51.40;35.50;;;;;;6103418;23;20437;-77
2022/06/12 14:20:36;;;;;;;2.33;2.13;;;52.20;34.60;;;;;;6106565;23;20461;-76
2022/06/12 14:23:17;;;;;;;2.10;2.00;;;49.60;34.60;;;;;;6104157;23;20524;-76
2022/06/12 14:25:49;;;;;;;4.87;2.47;;;47.80;35.70;;;;;;6104485;23;20484;-76
2022/06/12 14:28:28;;;;;;;3.53;2.30;;;46.30;36.40;;;;;;6106640;23;20429;-76
2022/06/12 14:31:07;;;;;;;2.40;2.30;;;45.80;37.80;;;;;;6104964;23;20433;-76
2022/06/12 14:33:38;;;;;;;2.57;2.37;;;46.30;37.80;;;;;;6105264;23;20445;-76
2022/06/12 14:36:08;;;;;;;3.33;2.20;;;46.50;37.10;;;;;;6101340;23;20453;-76
2022/06/12 14:38:38;;;;;;;2.43;2.23;;;47.00;37.10;;;;;;6104464;23;20464;-75
2022/06/12 14:41:18;;;;;;;2.20;2.10;;;46.40;36.80;;;;;;6099684;23;20464;-76
2022/06/12 14:43:46;;;;;;;2.50;2.30;;;46.20;37.00;;;;;;6094000;23;20479;-76
2022/06/12 14:46:16;;;;;;;3.20;3.00;;;45.20;37.90;;;;;;6098425;23;21015;-76
2022/06/12 14:48:45;;;;;;;3.00;2.40;;;43.90;38.60;;;;;;6103312;23;20849;-74
2022/06/12 14:51:12;;;;;;;3.13;2.83;;;41.80;40.50;;;;;;6103292;23;20864;-76
2022/06/12 14:53:40;;;;;;;2.40;2.20;;;40.50;42.30;;;;;;6105614;23;20491;-76
2022/06/12 14:56:14;;;;;;;2.70;2.50;;;39.90;43.10;;;;;;6107840;23;20468;-76
2022/06/12 14:58:43;;;;;;;2.20;2.10;;;40.20;43.20;;;;;;6106502;23;20433;-76
2022/06/12 15:01:13;;;;;;;2.50;2.30;;;41.20;42.50;;;;;;6102881;23;20489;-76
2022/06/12 15:03:41;;;;;;;2.77;2.57;;;42.60;41.90;;;;;;6098449;23;20525;-77
2022/06/12 15:06:11;;;;;;;3.80;2.30;;;44.40;39.90;;;;;;6107732;23;20458;-76
2022/06/12 15:08:38;;;;;;;2.33;2.13;;;45.30;38.30;;;;;;6110032;23;20442;-76
2022/06/12 15:11:17;;;;;;;2.53;2.33;;;45.50;38.40;;;;;;6103620;23;20474;-77
2022/06/12 15:13:46;;;;;;;2.87;2.67;;;46.30;37.90;;;;;;6097196;23;20429;-76
2022/06/12 15:16:13;;;;;;;2.57;2.37;;;46.50;37.30;;;;;;6099349;23;20501;-75
2022/06/12 15:18:41;;;;;;;2.63;2.30;;;45.00;37.80;;;;;;6095196;23;20905;-75
2022/06/12 15:21:15;;;;;;;2.73;2.53;;;42.50;38.90;;;;;;6087252;23;20466;-76
2022/06/12 15:23:43;;;;;;;2.57;2.33;;;40.30;41.40;;;;;;6099081;23;20438;-77
2022/06/12 15:31:41;;;;;;;2.80;2.60;;;39.40;43.40;;;;;;6094588;23;20957;-78
2022/06/12 15:34:08;;;;;;;2.60;2.40;;;39.90;43.00;;;;;;6099777;23;20434;-76
2022/06/12 15:36:37;;;;;;;3.63;2.63;;;40.30;42.80;;;;;;6077840;23;20438;-76
2022/06/12 15:39:04;;;;;;;6.70;6.20;;;39.40;42.50;;;;;;6083544;23;20937;-77
2022/06/12 15:41:33;;;;;;;3.20;2.40;;;39.60;43.20;;;;;;6096414;23;20472;-79
2022/06/12 15:44:01;;;;;;;6.20;2.40;;;39.90;42.70;;;;;;6092771;23;20430;-79
2022/06/12 15:46:29;;;;;;;2.70;2.30;;;39.90;41.90;;;;;;6100121;23;20546;-77
2022/06/12 15:48:57;;;;;;;2.90;2.60;;;39.50;42.70;;;;;;6086178;23;20470;-77
2022/06/12 15:51:27;;;;;;;2.50;2.20;;;39.00;43.60;;;;;;6099194;23;20438;-77
2022/06/12 15:53:57;;;;;;;2.60;2.40;;;38.20;43.50;;;;;;6094034;23;20438;-76
2022/06/12 15:56:26;;;;;;;2.60;2.40;;;36.90;44.10;;;;;;6097813;23;20473;-78
2022/06/12 15:58:55;;;;;;;2.60;2.40;;;36.00;45.30;;;;;;6090808;23;20453;-76
2022/06/12 16:01:26;;;;;;;2.73;2.53;;;35.20;46.90;;;;;;6093318;23;20466;-77
2022/06/12 16:03:54;;;;;;;2.40;2.10;;;34.20;47.50;;;;;;6096170;23;20441;-76
2022/06/12 16:06:22;;;;;;;3.57;2.60;;;33.60;48.60;;;;;;6103602;23;20471;-76
2022/06/12 16:08:50;;;;;;;2.37;2.17;;;32.80;49.40;;;;;;6092618;23;20559;-76
2022/06/12 16:11:18;;;;;;;3.60;2.07;;;32.00;50.00;;;;;;6098975;23;20516;-76
2022/06/12 16:13:45;;;;;;;3.60;2.40;;;31.50;51.00;;;;;;6092684;23;20899;-76
2022/06/12 16:16:13;;;;;;;2.20;1.93;;;31.20;51.20;;;;;;6098016;23;20524;-79
2022/06/12 16:18:40;;;;;;;3.37;2.20;;;30.90;50.80;;;;;;6100600;23;20788;-79
2022/06/12 16:21:08;;;;;;;1.90;1.80;;;30.70;51.20;;;;;;6092955;23;20434;-80
2022/06/12 16:23:36;;;;;;;1.80;1.70;;;30.60;52.20;;;;;;6096987;23;20439;-79
2022/06/12 16:26:05;;;;;;;2.53;2.20;;;30.40;50.40;;;;;;6093495;23;20977;-79
2022/06/12 16:28:36;;;;;;;2.00;1.80;;;30.20;50.80;;;;;;6092961;23;20437;-77
2022/06/12 16:31:05;;;;;;;2.03;1.87;;;30.10;51.00;;;;;;6102947;23;20433;-77
2022/06/12 16:33:32;;;;;;;2.10;1.90;;;29.90;51.80;;;;;;6091903;23;20434;-79
2022/06/12 16:36:02;;;;;;;2.40;2.20;;;29.80;52.00;;;;;;6094966;23;20461;-77
2022/06/12 16:38:31;;;;;;;2.20;2.00;;;29.80;52.30;;;;;;6102095;23;20425;-77
2022/06/12 16:40:58;;;;;;;2.43;1.97;;;29.70;52.70;;;;;;6097324;23;20791;-76
2022/06/12 16:43:26;;;;;;;2.70;1.77;;;29.70;53.50;;;;;;6105722;23;20445;-77
2022/06/12 16:45:55;;;;;;;2.50;2.20;;;29.60;53.60;;;;;;6097552;23;20814;-78
2022/06/12 16:48:25;;;;;;;2.47;2.27;;;29.50;53.70;;;;;;6100083;23;20453;-78
2022/06/12 16:50:52;;;;;;;2.50;2.30;;;29.50;54.10;;;;;;6096984;23;20457;-78
2022/06/12 16:53:20;;;;;;;2.57;2.27;;;29.40;54.60;;;;;;6101164;23;20518;-78
2022/06/12 16:55:47;;;;;;;2.43;2.20;;;29.30;54.90;;;;;;6097701;23;20456;-78
2022/06/12 16:58:14;;;;;;;2.43;2.23;;;29.20;55.20;;;;;;6102342;23;20438;-78
2022/06/12 17:00:41;;;;;;;2.17;2.00;;;29.20;55.50;;;;;;6095206;23;20446;-78
2022/06/12 17:03:10;;;;;;;2.57;2.37;;;29.20;55.80;;;;;;6094914;23;20470;-78
2022/06/12 17:05:38;;;;;;;2.03;1.93;;;29.10;55.80;;;;;;6096065;23;20503;-77
2022/06/12 17:08:05;;;;;;;2.50;2.30;;;29.00;56.00;;;;;;6097882;23;20499;-78
2022/06/12 17:10:37;;;;;;;2.30;2.10;;;28.90;56.20;;;;;;6093504;23;20440;-78
2022/06/12 17:13:04;;;;;;;2.30;2.10;;;28.80;56.20;;;;;;6099080;23;20434;-78
2022/06/12 17:15:32;;;;;;;2.67;2.30;;;28.60;56.40;;;;;;6100783;23;20450;-79
2022/06/12 17:20:54;;;;;;;2.37;2.17;;;28.60;57.00;;;;;;6057936;23;20437;-78
2022/06/12 17:23:25;;;;;;;2.00;1.90;;;28.60;57.00;;;;;;6081837;23;23981;-78
2022/06/12 17:25:53;;;;;;;2.40;2.20;;;28.60;57.30;;;;;;6076686;23;21011;-78
2022/06/12 17:28:22;;;;;;;3.60;3.30;;;28.60;57.40;;;;;;6077657;23;20435;-79
2022/06/12 17:30:51;;;;;;;2.50;2.30;;;28.60;57.40;;;;;;6080587;23;20438;-78
2022/06/12 17:33:19;;;;;;;2.10;2.00;;;28.60;57.70;;;;;;6071359;23;20518;-79
2022/06/12 17:35:47;;;;;;;2.40;2.20;;;28.50;57.40;;;;;;6078354;23;20551;-79
2022/06/12 17:38:16;;;;;;;2.40;2.20;;;28.50;57.50;;;;;;6079584;23;20466;-79
2022/06/12 17:40:44;;;;;;;2.53;2.33;;;28.30;57.70;;;;;;6077139;23;20443;-78
2022/06/12 17:43:12;;;;;;;2.47;2.27;;;28.30;58.10;;;;;;6081935;23;20470;-78
2022/06/12 17:45:40;;;;;;;2.10;1.90;;;28.20;58.40;;;;;;6077431;23;20478;-80
2022/06/12 17:48:07;;;;;;;2.60;2.40;;;28.20;58.60;;;;;;6077965;23;20426;-78
2022/06/12 17:50:37;;;;;;;2.70;2.50;;;28.20;59.00;;;;;;6080696;23;20493;-80
2022/06/12 17:53:06;;;;;;;2.47;2.27;;;28.00;59.50;;;;;;6074536;23;20434;-79
2022/06/12 17:55:36;;;;;;;2.93;2.63;;;27.90;60.00;;;;;;6086167;23;20465;-78
2022/06/12 17:58:03;;;;;;;2.93;2.73;;;27.90;60.50;;;;;;6093013;23;20434;-79